Nearby METAR Reports

 

KBFI - Seattle/Boeing, Washington, USA
Distance from station: S 4mi, 7km
Updated: 2019-04-19 03:40
Overcast
Overcast
 Wind from SSE
Wind: SSE 7 mph , 11 km/h
Temperature: 55°F , 13°C
Dew Point: 52°F , 11°C
Humidity: 88%
Barometer: 30.00 inHg , 1015.9 hPa
Clouds: Overcast
Visibility: 10 miles , 16 km
Cloud details: Partly cloudy 1300 ft
Mostly cloudy 4800 ft
Overcast 7000 ft
2019/04/19 10:40 KBFI 191040Z 16006KT 10SM SCT013 BKN048 OVC070 13/11 A3000 RMK AO2 T01330106
KRNT - Renton, Washington, USA
Distance from station: SSE 9mi, 14km
Updated: 2019-04-19 03:14
Overcast
Overcast
 Wind from S
Wind: S 5 mph , 7 km/h
Temperature: 57°F , 14°C
Dew Point: 54°F , 12°C
Humidity: 88%
Barometer: 30.00 inHg , 1015.9 hPa
Clouds: Overcast
Visibility: 10 miles , 16 km
Cloud details: Mostly cloudy 1600 ft
Mostly cloudy 3000 ft
Overcast 3800 ft
2019/04/19 10:14 KRNT 191014Z AUTO 17004KT 10SM BKN016 BKN030 OVC038 14/12 A3000 RMK AO2 T01390122
 
KSEA - Seattle/Metro, Washington, USA
Distance from station: S 11mi, 18km
Updated: 2019-04-19 03:22
Mostly cloudy
Mostly cloudy
 Wind from SW
Wind: SW 7 mph , 11 km/h
Temperature: 54°F , 12°C
Dew Point: 52°F , 11°C
Humidity: 94%
Barometer: 30.01 inHg , 1016.3 hPa
Clouds: Mostly cloudy
Visibility: 10 miles , 16 km
Cloud details: Partly cloudy 900 ft
Mostly cloudy 6000 ft
2019/04/19 10:22 KSEA 191022Z 22006KT 10SM SCT009 BKN060 12/11 A3001 RMK AO2 T01220106
KPAE - Everett, Washington, USA
Distance from station: N 21mi, 34km
Updated: 2019-04-19 02:53
Overcast
Overcast
 Wind from S
Wind: S 12 mph , 19 km/h
Temperature: 55°F , 13°C
Dew Point: 52°F , 11°C
Humidity: 88%
Barometer: 29.99 inHg , 1015.6 hPa
Clouds: Overcast
Visibility: 10 miles , 16 km
Cloud details: Partly cloudy 1200 ft
Mostly cloudy 7500 ft
Overcast 10000 ft
2019/04/19 09:53 KPAE 190953Z AUTO 18010KT 10SM SCT012 BKN075 OVC100 13/11 A2999 RMK AO2 SLP155 T01280111
 
KPWT - Bremerton Ntnl, Washington, USA
Distance from station: WSW 22mi, 35km
Updated: 2019-04-19 02:56
Overcast
Overcast
 Wind from SW
Wind: SW 7 mph , 11 km/h
Temperature: 52°F , 11°C
Dew Point: 50°F , 10°C
Humidity: 94%
Barometer: 30.00 inHg , 1015.9 hPa
Clouds: Overcast
Visibility: 10 miles , 16 km
Cloud details: Overcast 600 ft
2019/04/19 09:56 KPWT 190956Z AUTO 22006KT 10SM OVC006 11/10 A3000 RMK AO2 SLP177 T01110100
KTIW - Tacoma, Washington, USA
Distance from station: SSW 27mi, 43km
Updated: 2019-04-19 03:48
Overcast
Overcast
 Wind from W
Wind: W 3 mph , 6 km/h
Temperature: 54°F , 12°C
Dew Point: 50°F , 10°C
Humidity: 88%
Barometer: 30.02 inHg , 1016.6 hPa
Clouds: Overcast
Visibility: 10 miles , 16 km
Cloud details: Mostly cloudy 700 ft
Overcast 1100 ft
2019/04/19 10:48 KTIW 191048Z AUTO 26003KT 10SM BKN007 OVC011 12/10 A3002 RMK AO2 SLP165 T01170100
 
KTCM - Tacoma/Mc Chord, Washington, USA
Distance from station: S 35mi, 56km
Updated: 2019-04-19 02:56
Mostly cloudy
Mostly cloudy
 Wind from W
Wind: W 6 mph , 9 km/h
Temperature: 54°F , 12°C
Dew Point: 54°F , 12°C
Humidity: 100%
Barometer: 30.02 inHg , 1016.6 hPa
Clouds: Mostly cloudy
Visibility: 10 miles , 16 km
Cloud details: Few Clouds 2500 ft
Partly cloudy 5000 ft
Partly cloudy 11000 ft
Mostly cloudy 14000 ft
2019/04/19 09:56 KTCM 190956Z AUTO 28005KT 10SM FEW025 SCT050 SCT110 BKN140 12/12 A3002 RMK AO2 SLP170 T01240124 RVRNO VISNO RWY34 CHINO RWY34 $
KPLU - Puyallup/Thun, Washington, USA
Distance from station: S 35mi, 57km
Updated: 2019-04-19 03:35
Overcast
Overcast
 Wind from calm
Wind: Calm
Temperature: 54°F , 12°C
Dew Point: 54°F , 12°C
Humidity: 100%
Barometer: 30.01 inHg , 1016.3 hPa
Clouds: Overcast
Visibility: 10 miles , 16 km
Cloud details: Mostly cloudy 3900 ft
Overcast 4800 ft
2019/04/19 10:35 KPLU 191035Z AUTO 00000KT 10SM BKN039 OVC048 12/12 A3001 RMK AO2
 
K0S9 - Port Townsend, Washington, USA
Distance from station: NW 38mi, 62km
Updated: 2019-04-19 03:35
Mist, Overcast
Mist, Overcast
 Wind from calm
Wind: Calm
Temperature: 52°F , 11°C
Dew Point: 52°F , 11°C
Humidity: 100%
Barometer: 29.98 inHg , 1015.2 hPa
Summary: Mist
Clouds: Overcast
Visibility: 4 miles , 6 km
Cloud details: Overcast 400 ft
2019/04/19 10:35 K0S9 191035Z AUTO 00000KT 4SM BR OVC004 11/11 A2998 RMK AO2
KAWO - Arlington Muni, Washington, USA
Distance from station: N 39mi, 63km
Updated: 2019-04-19 02:56
Light rain, Overcast
Light rain, Overcast
 Wind from calm
Wind: Calm
Temperature: 55°F , 13°C
Dew Point: 54°F , 12°C
Humidity: 94%
Barometer: 30.00 inHg , 1015.9 hPa
Summary: Light rain
Clouds: Overcast
Visibility: 10 miles , 16 km
Cloud details: Overcast 2200 ft
2019/04/19 09:56 KAWO 190956Z AUTO 00000KT 10SM -RA OVC022 13/12 A3000 RMK AO2 RAB0857 SLP163 P0000 T01280117 $
 
KGRF - Fort Lewis/Gray, Washington, USA
Distance from station: SSW 39mi, 64km
Updated: 2019-04-19 02:56
Mostly cloudy
Mostly cloudy
 Wind from SSW
Wind: SSW 3 mph , 6 km/h
Temperature: 54°F , 12°C
Dew Point: 54°F , 12°C
Humidity: 100%
Barometer: 30.01 inHg , 1016.3 hPa
Clouds: Mostly cloudy
Visibility: 10 miles , 16 km
Cloud details: Few Clouds 3200 ft
Mostly cloudy 14000 ft
2019/04/19 09:56 KGRF 190956Z 20003KT 10SM FEW032 BKN140 12/12 A3001 RMK AO2A DZB12E30 SLP166 P0000 T01230123 $
KSHN - Shelton, Washington, USA
Distance from station: SW 46mi, 75km
Updated: 2019-04-19 03:16
Mist, Overcast
Mist, Overcast
 Wind from SW
Wind: SW 12 mph , 19 km/h
Temperature: 54°F , 12°C
Dew Point: 50°F , 10°C
Humidity: 88%
Barometer: 30.01 inHg , 1016.3 hPa
Summary: Mist
Clouds: Overcast
Visibility: 3 miles , 5 km
Cloud details: Overcast 300 ft
2019/04/19 10:16 KSHN 191016Z AUTO 23010KT 3SM BR OVC003 12/10 A3001 RMK AO2 T01170100